createdAt,value
2023-02-06T00:01:15.651Z,2.00
2023-02-06T00:03:42.507Z,1.97
2023-02-06T00:06:09.428Z,1.97
2023-02-06T00:08:36.345Z,1.80
2023-02-06T00:11:07.517Z,1.67
2023-02-06T00:13:35.782Z,2.30
2023-02-06T00:16:03.484Z,1.93
2023-02-06T00:18:30.715Z,2.33
2023-02-06T00:20:57.732Z,2.33
2023-02-06T00:23:24.642Z,2.27
2023-02-06T00:25:51.492Z,2.10
2023-02-06T00:28:18.474Z,2.70
2023-02-06T00:30:48.328Z,2.27
2023-02-06T00:33:15.550Z,1.97
2023-02-06T00:35:42.594Z,2.03
2023-02-06T00:38:11.318Z,1.77
2023-02-06T00:40:38.616Z,1.73
2023-02-06T00:43:05.682Z,2.40
2023-02-06T00:45:32.892Z,2.10
2023-02-06T00:48:00.912Z,1.93
2023-02-06T00:50:28.040Z,2.27
2023-02-06T00:52:54.928Z,1.70
2023-02-06T00:55:21.962Z,2.60
2023-02-06T00:57:48.902Z,2.17
2023-02-06T01:00:16.644Z,2.47
2023-02-06T01:02:43.632Z,2.07
2023-02-06T01:05:10.852Z,1.70
2023-02-06T01:07:39.611Z,1.83
2023-02-06T01:10:07.896Z,1.77
2023-02-06T01:12:36.436Z,2.10
2023-02-06T01:15:05.724Z,2.00
2023-02-06T01:17:33.770Z,2.00
2023-02-06T01:20:01.139Z,1.97
2023-02-06T01:22:30.081Z,1.93
2023-02-06T01:24:56.967Z,2.30
2023-02-06T01:27:23.852Z,1.77
2023-02-06T01:29:50.880Z,1.53
2023-02-06T01:32:17.736Z,2.00
2023-02-06T01:34:44.745Z,1.93
2023-02-06T01:37:11.657Z,2.30
2023-02-06T01:39:39.720Z,2.20
2023-02-06T01:42:06.836Z,2.13
2023-02-06T01:44:34.194Z,1.97
2023-02-06T01:47:01.151Z,2.20
2023-02-06T01:49:28.026Z,2.30
2023-02-06T01:52:04.212Z,2.07
2023-02-06T01:54:31.558Z,2.10
2023-02-06T01:57:04.085Z,2.13
2023-02-06T01:59:31.097Z,2.53
2023-02-06T02:01:58.065Z,2.10
2023-02-06T02:04:29.146Z,1.93
2023-02-06T02:07:19.784Z,2.00
2023-02-06T02:09:46.678Z,2.53
2023-02-06T02:12:13.812Z,2.00
2023-02-06T02:14:43.771Z,2.53
2023-02-06T02:17:41.764Z,2.50
2023-02-06T02:20:36.257Z,1.90
2023-02-06T02:23:12.053Z,2.27
2023-02-06T02:26:07.803Z,2.07
2023-02-06T02:28:43.874Z,2.37
2023-02-06T02:31:32.360Z,2.00
2023-02-06T02:34:08.371Z,2.20
2023-02-06T02:36:51.544Z,2.47
2023-02-06T02:39:59.394Z,2.20
2023-02-06T02:42:37.223Z,2.00
2023-02-06T02:45:39.606Z,2.73
2023-02-06T02:48:30.117Z,2.53
2023-02-06T02:50:59.883Z,3.60
2023-02-06T02:53:27.969Z,2.37
2023-02-06T02:55:55.158Z,3.77
2023-02-06T02:58:32.916Z,2.67
2023-02-06T03:01:04.529Z,2.93
2023-02-06T03:03:37.461Z,2.80
2023-02-06T03:06:13.459Z,2.83
2023-02-06T03:08:48.668Z,2.20
2023-02-06T03:11:18.624Z,2.90
2023-02-06T03:14:02.920Z,2.77
2023-02-06T03:16:45.971Z,2.90
2023-02-06T03:19:26.314Z,3.23
2023-02-06T03:21:53.261Z,2.60
2023-02-06T03:24:25.004Z,2.10
2023-02-06T03:27:01.645Z,2.40
2023-02-06T03:29:31.756Z,3.03
2023-02-06T03:32:02.471Z,2.27
2023-02-06T03:34:34.234Z,2.87
2023-02-06T03:37:01.490Z,2.73
2023-02-06T03:39:28.492Z,2.90
2023-02-06T03:41:57.900Z,2.30
2023-02-06T03:44:30.348Z,3.13
2023-02-06T03:46:59.649Z,2.50
2023-02-06T03:49:30.401Z,3.37
2023-02-06T03:52:11.408Z,2.87
2023-02-06T03:54:43.328Z,2.53
2023-02-06T03:57:14.271Z,3.13
2023-02-06T03:59:41.221Z,3.10
2023-02-06T04:02:08.253Z,3.00
2023-02-06T04:04:38.682Z,3.50
2023-02-06T04:07:27.286Z,3.10
2023-02-06T04:09:54.443Z,2.30
2023-02-06T04:12:22.728Z,3.20
2023-02-06T04:14:49.938Z,3.03
2023-02-06T04:17:36.118Z,3.40
2023-02-06T04:20:06.389Z,2.93
2023-02-06T04:22:33.583Z,2.53
2023-02-06T04:25:00.790Z,3.47
2023-02-06T04:27:27.778Z,3.67
2023-02-06T04:29:54.677Z,3.87
2023-02-06T04:32:21.578Z,3.30
2023-02-06T04:34:48.531Z,3.10
2023-02-06T04:37:15.399Z,3.67
2023-02-06T04:39:42.434Z,2.40
2023-02-06T04:42:09.331Z,2.83
2023-02-06T04:44:38.436Z,3.13
2023-02-06T04:47:05.949Z,3.27
2023-02-06T04:49:33.362Z,2.83
2023-02-06T04:52:00.292Z,2.53
2023-02-06T04:54:27.352Z,2.70
2023-02-06T04:56:54.206Z,3.10
2023-02-06T04:59:21.131Z,2.70
2023-02-06T05:01:48.246Z,2.37
2023-02-06T05:04:15.298Z,2.90
2023-02-06T05:06:42.150Z,3.50
2023-02-06T05:09:09.875Z,3.30
2023-02-06T05:11:36.720Z,3.63
2023-02-06T05:14:03.609Z,3.80
2023-02-06T05:16:30.475Z,2.57
2023-02-06T05:18:57.961Z,2.90
2023-02-06T05:21:26.348Z,3.30
2023-02-06T05:23:53.205Z,3.30
2023-02-06T05:26:20.457Z,3.27
2023-02-06T05:28:47.560Z,2.93
2023-02-06T05:31:19.730Z,3.10
2023-02-06T05:33:51.769Z,3.30
2023-02-06T05:36:19.931Z,3.50
2023-02-06T05:38:47.424Z,3.10
2023-02-06T05:41:15.193Z,3.77
2023-02-06T05:43:42.188Z,3.70
2023-02-06T05:46:09.590Z,3.67
2023-02-06T05:48:36.540Z,3.27
2023-02-06T05:51:03.775Z,3.40
2023-02-06T05:53:30.868Z,3.10
2023-02-06T05:55:57.867Z,3.17
2023-02-06T05:58:25.167Z,4.43
2023-02-06T06:00:52.111Z,3.20
2023-02-06T06:03:19.250Z,3.33
2023-02-06T06:05:46.627Z,3.27
2023-02-06T06:08:13.563Z,3.50
2023-02-06T06:10:40.584Z,3.67
2023-02-06T06:13:08.384Z,4.03
2023-02-06T06:15:35.614Z,2.83
2023-02-06T06:18:03.106Z,3.57
2023-02-06T06:20:29.981Z,2.90
2023-02-06T06:22:56.929Z,3.20
2023-02-06T06:25:23.802Z,3.77
2023-02-06T06:27:50.770Z,2.67
2023-02-06T06:30:17.881Z,3.23
2023-02-06T06:32:45.113Z,2.93
2023-02-06T06:35:12.051Z,2.67
2023-02-06T06:37:38.999Z,3.27
2023-02-06T06:40:06.318Z,3.50
2023-02-06T06:42:33.427Z,3.83
2023-02-06T06:45:00.297Z,4.20
2023-02-06T06:47:27.258Z,3.47
2023-02-06T06:49:54.171Z,5.00
2023-02-06T06:52:25.218Z,4.63
2023-02-06T06:54:53.433Z,3.80
2023-02-06T06:57:21.828Z,5.17
2023-02-06T06:59:49.212Z,4.80
2023-02-06T07:02:17.232Z,3.60
2023-02-06T07:04:44.144Z,3.77
2023-02-06T07:07:11.188Z,3.33
2023-02-06T07:09:38.102Z,3.77
2023-02-06T07:12:05.504Z,3.50
2023-02-06T07:14:32.345Z,3.53
2023-02-06T07:17:00.922Z,3.20
2023-02-06T07:19:28.047Z,4.57
2023-02-06T07:21:54.954Z,4.30
2023-02-06T07:24:21.897Z,3.60
2023-02-06T07:26:48.792Z,3.73
2023-02-06T07:29:15.774Z,2.70
2023-02-06T07:31:42.748Z,3.90
2023-02-06T07:34:09.774Z,3.70
2023-02-06T07:36:37.464Z,5.00
2023-02-06T07:39:04.838Z,4.80
2023-02-06T07:41:31.963Z,2.87
2023-02-06T07:43:58.855Z,4.13
2023-02-06T07:46:25.934Z,3.83
2023-02-06T07:48:52.856Z,3.40
2023-02-06T07:51:19.797Z,4.50
2023-02-06T07:53:47.987Z,4.00
2023-02-06T07:56:17.350Z,4.27
2023-02-06T07:58:45.186Z,4.93
2023-02-06T08:01:12.112Z,3.33
2023-02-06T08:03:39.239Z,3.67
2023-02-06T08:06:11.933Z,4.27
2023-02-06T08:08:39.078Z,4.20
2023-02-06T08:11:12.274Z,4.13
2023-02-06T08:13:39.303Z,3.53
2023-02-06T08:16:11.556Z,4.57
2023-02-06T08:18:39.433Z,4.80
2023-02-06T08:21:13.606Z,3.77
2023-02-06T08:23:41.161Z,3.83
2023-02-06T08:26:15.879Z,4.27
2023-02-06T08:28:44.291Z,4.80
2023-02-06T08:31:12.711Z,4.10
2023-02-06T08:33:40.012Z,4.80
2023-02-06T08:36:11.992Z,4.23
2023-02-06T08:38:39.960Z,4.93
2023-02-06T08:41:18.211Z,4.60
2023-02-06T08:43:48.267Z,3.43
2023-02-06T08:46:19.699Z,3.97
2023-02-06T08:48:46.854Z,3.93
2023-02-06T08:51:15.320Z,2.70
2023-02-06T08:53:42.197Z,4.10
2023-02-06T08:56:11.483Z,4.07
2023-02-06T08:58:39.213Z,3.50
2023-02-06T09:01:13.897Z,4.83
2023-02-06T09:03:41.876Z,4.23
2023-02-06T09:06:10.476Z,4.47
2023-02-06T09:08:39.323Z,4.10
2023-02-06T09:11:11.502Z,5.77
2023-02-06T09:13:39.337Z,4.73
2023-02-06T09:16:07.067Z,4.10
2023-02-06T09:18:34.725Z,4.50
2023-02-06T09:21:07.893Z,4.10
2023-02-06T09:23:35.381Z,3.70
2023-02-06T09:26:02.336Z,4.30
2023-02-06T09:28:29.259Z,5.27
2023-02-06T09:30:56.469Z,3.70
2023-02-06T09:33:23.879Z,4.23
2023-02-06T09:35:50.721Z,4.70
2023-02-06T09:38:17.572Z,3.57
2023-02-06T09:40:44.571Z,3.40
2023-02-06T09:43:13.878Z,4.33
2023-02-06T09:45:41.236Z,4.00
2023-02-06T09:48:22.368Z,3.80
2023-02-06T09:50:58.238Z,3.50
2023-02-06T09:53:42.000Z,3.20
2023-02-06T09:56:34.749Z,3.00
2023-02-06T09:59:10.615Z,4.23
2023-02-06T10:01:59.836Z,4.50
2023-02-06T10:05:03.091Z,4.57
2023-02-06T10:08:08.115Z,4.47
2023-02-06T10:10:44.161Z,4.13
2023-02-06T10:13:26.013Z,2.40
2023-02-06T10:15:59.791Z,2.50
2023-02-06T10:18:44.499Z,3.47
2023-02-06T10:21:38.971Z,3.80
2023-02-06T10:24:21.819Z,3.37
2023-02-06T10:26:52.153Z,3.70
2023-02-06T10:29:26.778Z,2.77
2023-02-06T10:32:27.148Z,2.70
2023-02-06T10:34:59.937Z,2.83
2023-02-06T10:37:47.834Z,3.00
2023-02-06T10:40:20.735Z,2.93
2023-02-06T10:43:06.616Z,3.90
2023-02-06T10:45:45.509Z,3.30
2023-02-06T10:48:47.153Z,3.20
2023-02-06T10:51:29.814Z,3.30
2023-02-06T10:54:06.514Z,3.30
2023-02-06T10:56:41.249Z,3.20
2023-02-06T10:59:25.114Z,3.67
2023-02-06T11:02:02.534Z,3.20
2023-02-06T11:04:44.902Z,3.37
2023-02-06T11:07:24.977Z,3.00
2023-02-06T11:09:53.252Z,3.93
2023-02-06T11:12:42.262Z,3.33
2023-02-06T11:15:23.434Z,2.77
2023-02-06T11:17:53.164Z,3.47
2023-02-06T11:20:32.070Z,4.13
2023-02-06T11:23:25.953Z,3.53
2023-02-06T11:26:14.652Z,3.20
2023-02-06T11:28:52.459Z,3.57
2023-02-06T11:31:38.335Z,3.90
2023-02-06T11:34:05.744Z,3.20
2023-02-06T11:36:36.938Z,3.77
2023-02-06T11:39:18.774Z,3.73
2023-02-06T11:42:25.722Z,4.63
2023-02-06T11:44:53.837Z,4.27
2023-02-06T11:47:26.705Z,3.77
2023-02-06T11:49:53.679Z,4.23
2023-02-06T11:52:33.402Z,4.03
2023-02-06T11:55:03.282Z,3.60
2023-02-06T11:57:36.268Z,4.23
2023-02-06T12:00:23.830Z,5.30
2023-02-06T12:02:53.200Z,3.30
2023-02-06T12:05:22.777Z,4.47
2023-02-06T12:08:07.541Z,4.17
2023-02-06T12:10:39.744Z,4.97
2023-02-06T12:13:20.067Z,3.30
2023-02-06T12:15:54.531Z,5.47
2023-02-06T12:18:26.235Z,5.30
2023-02-06T12:21:24.455Z,3.67
2023-02-06T12:24:02.903Z,3.30
2023-02-06T12:26:33.144Z,3.03
2023-02-06T12:29:09.808Z,4.60
2023-02-06T12:31:40.079Z,4.63
2023-02-06T12:34:20.175Z,5.23
2023-02-06T12:37:00.641Z,3.90
2023-02-06T12:39:33.197Z,5.00
2023-02-06T12:42:39.323Z,4.07
2023-02-06T12:45:12.817Z,5.20
2023-02-06T12:48:10.648Z,3.63
2023-02-06T12:50:46.714Z,3.60
2023-02-06T12:53:39.529Z,3.90
2023-02-06T12:56:39.387Z,4.63
2023-02-06T12:59:41.589Z,3.70
2023-02-06T13:02:24.228Z,4.27
2023-02-06T13:04:52.588Z,2.70
2023-02-06T13:07:22.259Z,2.73
2023-02-06T13:10:08.790Z,3.07
2023-02-06T13:12:41.389Z,3.30
2023-02-06T13:15:27.203Z,3.00
2023-02-06T13:18:00.662Z,3.43
2023-02-06T13:20:35.664Z,3.60
2023-02-06T13:23:19.236Z,3.53
2023-02-06T13:25:52.663Z,3.23
2023-02-06T13:28:25.709Z,3.83
2023-02-06T13:31:02.946Z,3.70
2023-02-06T13:33:51.724Z,4.20
2023-02-06T13:36:30.944Z,3.70
2023-02-06T13:39:13.545Z,4.00
2023-02-06T13:41:45.211Z,3.40
2023-02-06T13:44:26.573Z,3.53
2023-02-06T13:47:15.644Z,4.80
2023-02-06T13:50:01.156Z,4.67
2023-02-06T13:52:46.708Z,2.47
2023-02-06T13:55:32.452Z,4.60
2023-02-06T13:58:34.465Z,4.10
2023-02-06T14:01:04.784Z,4.23
2023-02-06T14:03:34.616Z,3.00
2023-02-06T14:06:16.589Z,4.00
2023-02-06T14:09:12.375Z,2.97
2023-02-06T14:12:11.130Z,3.67
2023-02-06T14:15:01.078Z,3.87
2023-02-06T14:17:44.253Z,4.70
2023-02-06T14:20:17.128Z,3.70
2023-02-06T14:22:53.079Z,3.93
2023-02-06T14:25:41.780Z,3.33
2023-02-06T14:28:14.608Z,5.83
2023-02-06T14:30:53.912Z,4.17
2023-02-06T14:33:51.034Z,3.90
2023-02-06T14:36:47.222Z,3.37
2023-02-06T14:39:48.830Z,3.80
2023-02-06T14:42:35.760Z,4.47
2023-02-06T14:45:21.947Z,3.87
2023-02-06T14:47:50.128Z,4.70
2023-02-06T14:50:26.078Z,4.07
2023-02-06T14:52:57.634Z,4.13
2023-02-06T14:55:42.734Z,4.90
2023-02-06T14:58:28.982Z,3.50
2023-02-06T15:01:10.963Z,4.20
2023-02-06T15:03:40.132Z,4.50
2023-02-06T15:06:13.155Z,4.83
2023-02-06T15:08:51.039Z,4.43
2023-02-06T15:11:23.817Z,4.97
2023-02-06T15:13:56.641Z,6.23
2023-02-06T15:16:23.506Z,5.97
2023-02-06T15:18:50.416Z,6.57
2023-02-06T15:21:23.714Z,4.30
2023-02-06T15:23:57.762Z,5.20
2023-02-06T15:26:32.621Z,4.70
2023-02-06T15:29:02.082Z,4.40
2023-02-06T15:31:29.984Z,5.63
2023-02-06T15:34:01.409Z,5.70
2023-02-06T15:36:34.461Z,5.17
2023-02-06T15:39:04.199Z,5.97
2023-02-06T15:41:31.814Z,5.00
2023-02-06T15:44:23.973Z,4.40
2023-02-06T15:46:51.891Z,4.00
2023-02-06T15:49:38.520Z,4.83
2023-02-06T15:52:05.800Z,3.97
2023-02-06T15:54:34.139Z,5.07
2023-02-06T15:57:24.093Z,4.17
2023-02-06T15:59:51.401Z,4.13
2023-02-06T16:02:39.753Z,4.10
2023-02-06T16:05:09.316Z,3.90
2023-02-06T16:07:36.543Z,4.50
2023-02-06T16:10:12.580Z,3.60
2023-02-06T16:12:43.344Z,4.13
2023-02-06T16:15:32.011Z,5.27
2023-02-06T16:18:18.290Z,5.27
2023-02-06T16:20:46.516Z,4.37
2023-02-06T16:23:26.196Z,4.07
2023-02-06T16:26:14.587Z,5.03
2023-02-06T16:28:57.977Z,4.93
2023-02-06T16:31:27.457Z,3.77
2023-02-06T16:33:56.001Z,3.70
2023-02-06T16:36:24.017Z,4.67
2023-02-06T16:39:02.872Z,3.77
2023-02-06T16:41:39.512Z,4.57
2023-02-06T16:44:15.191Z,3.93
2023-02-06T16:46:42.253Z,4.93
2023-02-06T16:49:16.610Z,3.70
2023-02-06T16:51:45.612Z,4.97
2023-02-06T16:54:23.739Z,4.43
2023-02-06T16:56:51.921Z,5.03
2023-02-06T16:59:18.803Z,3.00
2023-02-06T17:01:45.652Z,3.90
2023-02-06T17:04:12.578Z,4.03
2023-02-06T17:06:39.673Z,4.83
2023-02-06T17:09:10.943Z,4.77
2023-02-06T17:11:38.864Z,5.03
2023-02-06T17:14:06.124Z,5.20
2023-02-06T17:16:33.773Z,4.40
2023-02-06T17:19:00.748Z,5.10
2023-02-06T17:21:32.665Z,4.60
2023-02-06T17:24:00.045Z,6.10
2023-02-06T17:26:27.113Z,5.73
2023-02-06T17:28:54.012Z,5.00
2023-02-06T17:31:21.816Z,5.33
2023-02-06T17:33:49.297Z,6.10
2023-02-06T17:36:22.415Z,5.27
2023-02-06T17:38:49.665Z,4.63
2023-02-06T17:41:16.596Z,4.30
2023-02-06T17:43:43.506Z,6.27
2023-02-06T17:46:11.488Z,6.20
2023-02-06T17:48:42.670Z,5.83
2023-02-06T17:51:09.823Z,4.70
2023-02-06T17:53:37.121Z,5.30
2023-02-06T17:56:12.689Z,4.60
2023-02-06T17:58:41.067Z,6.03
2023-02-06T18:01:17.469Z,4.60
2023-02-06T18:03:45.888Z,5.10
2023-02-06T18:06:14.467Z,3.77
2023-02-06T18:08:42.021Z,5.70
2023-02-06T18:11:14.551Z,6.20
2023-02-06T18:13:42.729Z,6.27
2023-02-06T18:16:15.834Z,7.13
2023-02-06T18:18:43.280Z,5.40
2023-02-06T18:21:10.288Z,5.97
2023-02-06T18:23:38.209Z,4.40
2023-02-06T18:26:08.425Z,4.37
2023-02-06T18:28:36.481Z,4.70
2023-02-06T18:31:03.751Z,3.13
2023-02-06T18:33:32.108Z,6.10
2023-02-06T18:35:58.974Z,3.40
2023-02-06T18:38:25.961Z,3.27
2023-02-06T18:40:52.882Z,3.57
2023-02-06T18:43:19.809Z,3.83
2023-02-06T18:45:46.776Z,3.50
2023-02-06T18:48:13.754Z,3.10
2023-02-06T18:50:42.679Z,3.50
2023-02-06T18:53:10.080Z,5.00
2023-02-06T18:55:37.355Z,4.73
2023-02-06T18:58:05.899Z,5.60
2023-02-06T19:00:35.757Z,6.07
2023-02-06T19:03:03.042Z,4.57
2023-02-06T19:05:34.994Z,4.57
2023-02-06T19:08:01.898Z,5.53
2023-02-06T19:10:29.304Z,5.90
2023-02-06T19:12:56.209Z,5.23
2023-02-06T19:15:23.110Z,3.53
2023-02-06T19:17:50.264Z,4.77
2023-02-06T19:20:17.236Z,3.90
2023-02-06T19:22:44.193Z,5.23
2023-02-06T19:25:14.248Z,6.03
2023-02-06T19:27:41.671Z,5.77
2023-02-06T19:30:09.269Z,3.60
2023-02-06T19:32:36.294Z,4.17
2023-02-06T19:35:04.191Z,5.13
2023-02-06T19:37:31.672Z,4.70
2023-02-06T19:39:58.762Z,5.07
2023-02-06T19:42:25.619Z,4.83
2023-02-06T19:44:54.793Z,6.03
2023-02-06T19:47:22.287Z,4.27
2023-02-06T19:49:51.677Z,5.03
2023-02-06T19:52:18.770Z,4.93
2023-02-06T19:54:47.754Z,5.20
2023-02-06T19:57:16.080Z,7.43
2023-02-06T19:59:43.245Z,4.60
2023-02-06T20:02:14.169Z,4.20
2023-02-06T20:04:41.546Z,5.03
2023-02-06T20:07:08.589Z,5.13
2023-02-06T20:09:36.564Z,4.50
2023-02-06T20:12:03.703Z,4.87
2023-02-06T20:14:30.626Z,4.47
2023-02-06T20:16:57.596Z,3.33
2023-02-06T20:19:27.168Z,4.13
2023-02-06T20:21:57.498Z,4.50
2023-02-06T20:24:27.787Z,5.73
2023-02-06T20:27:01.572Z,4.00
2023-02-06T20:29:32.391Z,4.30
2023-02-06T20:32:00.377Z,4.03
2023-02-06T20:34:46.491Z,4.53
2023-02-06T20:37:14.294Z,4.20
2023-02-06T20:39:41.140Z,4.43
2023-02-06T20:42:20.052Z,3.50
2023-02-06T20:44:47.567Z,3.87
2023-02-06T20:47:14.436Z,4.77
2023-02-06T20:49:42.024Z,4.47
2023-02-06T20:52:08.938Z,3.97
2023-02-06T20:54:35.843Z,3.60
2023-02-06T20:57:02.915Z,3.90
2023-02-06T20:59:30.518Z,3.60
2023-02-06T21:01:57.776Z,3.07
2023-02-06T21:04:24.704Z,3.27
2023-02-06T21:06:51.737Z,3.60
2023-02-06T21:09:19.171Z,3.50
2023-02-06T21:11:48.345Z,3.70
2023-02-06T21:14:15.928Z,3.17
2023-02-06T21:16:43.997Z,2.90
2023-02-06T21:19:13.474Z,2.80
2023-02-06T21:21:40.752Z,4.47
2023-02-06T21:24:10.735Z,3.13
2023-02-06T21:26:38.739Z,3.67
2023-02-06T21:29:07.746Z,3.93
2023-02-06T21:31:38.342Z,4.47
2023-02-06T21:34:28.204Z,4.20
2023-02-06T21:36:58.224Z,4.67
2023-02-06T21:39:27.318Z,4.33
2023-02-06T21:41:54.568Z,4.67
2023-02-06T21:44:26.509Z,4.87
2023-02-06T21:46:55.924Z,4.47
2023-02-06T21:49:23.333Z,4.80
2023-02-06T21:51:51.493Z,4.33
2023-02-06T21:54:19.092Z,3.67
2023-02-06T21:56:46.138Z,3.03
2023-02-06T21:59:13.062Z,3.57
2023-02-06T22:01:41.185Z,3.00
2023-02-06T22:04:09.572Z,3.30
2023-02-06T22:06:37.111Z,3.43
2023-02-06T22:09:07.790Z,4.30
2023-02-06T22:11:39.254Z,4.20
2023-02-06T22:14:09.905Z,3.00
2023-02-06T22:16:37.231Z,3.47
2023-02-06T22:19:04.423Z,3.57
2023-02-06T22:21:32.930Z,3.43
2023-02-06T22:24:02.360Z,3.10
2023-02-06T22:26:30.409Z,2.90
2023-02-06T22:28:59.121Z,2.47
2023-02-06T22:31:32.051Z,2.90
2023-02-06T22:34:00.312Z,3.83
2023-02-06T22:36:30.640Z,3.13
2023-02-06T22:39:00.687Z,3.57
2023-02-06T22:41:28.367Z,3.27
2023-02-06T22:43:55.577Z,3.03
2023-02-06T22:46:31.800Z,2.50
2023-02-06T22:48:58.775Z,3.47
2023-02-06T22:51:26.301Z,2.83
2023-02-06T22:53:54.455Z,3.60
2023-02-06T22:56:51.195Z,3.57
2023-02-06T22:59:23.935Z,2.80
2023-02-06T23:02:00.356Z,3.43
2023-02-06T23:04:29.930Z,2.70
2023-02-06T23:06:57.100Z,3.13
2023-02-06T23:09:26.633Z,3.40
2023-02-06T23:11:55.017Z,3.40
2023-02-06T23:14:21.917Z,5.07
2023-02-06T23:16:48.833Z,4.93
2023-02-06T23:19:17.990Z,4.37
2023-02-06T23:21:47.414Z,3.77
2023-02-06T23:24:15.716Z,3.63
2023-02-06T23:26:44.664Z,2.97
2023-02-06T23:29:15.928Z,2.80
2023-02-06T23:31:44.572Z,3.27
2023-02-06T23:34:11.964Z,3.53
2023-02-06T23:36:38.944Z,4.27
2023-02-06T23:39:06.553Z,5.70
2023-02-06T23:41:34.240Z,4.83
2023-02-06T23:44:07.143Z,3.93
2023-02-06T23:46:36.624Z,5.47
2023-02-06T23:49:04.346Z,3.27
2023-02-06T23:51:32.678Z,3.67
2023-02-06T23:53:59.617Z,3.67
2023-02-06T23:56:29.130Z,3.23
2023-02-06T23:58:57.878Z,3.40
